createdAt,value
2018-11-27T00:02:05.198Z,57.20
2018-11-27T00:04:32.520Z,56.77
2018-11-27T00:06:59.944Z,56.16
2018-11-27T00:09:27.440Z,54.54
2018-11-27T00:11:54.975Z,55.72
2018-11-27T00:14:22.367Z,56.40
2018-11-27T00:16:49.814Z,56.65
2018-11-27T00:19:17.221Z,55.73
2018-11-27T00:21:44.651Z,57.18
2018-11-27T00:24:12.096Z,58.17
2018-11-27T00:26:39.445Z,57.31
2018-11-27T00:29:07.505Z,57.36
2018-11-27T00:31:34.976Z,57.44
2018-11-27T00:34:02.402Z,57.80
2018-11-27T00:36:30.526Z,57.32
2018-11-27T00:38:57.885Z,56.52
2018-11-27T00:41:25.185Z,56.49
2018-11-27T00:43:52.523Z,57.08
2018-11-27T00:46:19.895Z,57.21
2018-11-27T00:48:47.297Z,55.93
2018-11-27T00:51:14.680Z,55.30
2018-11-27T00:53:42.043Z,55.63
2018-11-27T00:56:09.517Z,55.30
2018-11-27T00:58:36.891Z,56.50
2018-11-27T01:01:04.481Z,56.49
2018-11-27T01:03:31.917Z,57.39
2018-11-27T01:05:59.219Z,57.75
2018-11-27T01:08:26.599Z,57.54
2018-11-27T01:10:53.927Z,56.61
2018-11-27T01:13:21.252Z,57.79
2018-11-27T01:15:48.717Z,58.33
2018-11-27T01:18:16.124Z,58.36
2018-11-27T01:20:44.197Z,57.78
2018-11-27T01:23:11.550Z,57.53
2018-11-27T01:25:38.991Z,59.05
2018-11-27T01:28:07.013Z,57.72
2018-11-27T01:30:34.450Z,58.26
2018-11-27T01:33:01.815Z,57.68
2018-11-27T01:35:29.356Z,57.56
2018-11-27T01:37:56.778Z,57.77
2018-11-27T01:40:26.023Z,58.17
2018-11-27T01:42:54.234Z,57.69
2018-11-27T01:45:22.372Z,57.69
2018-11-27T01:47:50.167Z,57.61
2018-11-27T01:50:18.549Z,56.85
2018-11-27T01:52:46.024Z,57.90
2018-11-27T01:55:16.532Z,57.78
2018-11-27T01:57:43.849Z,57.87
2018-11-27T02:00:21.950Z,57.66
2018-11-27T02:02:49.584Z,58.27
2018-11-27T02:05:17.309Z,58.09
2018-11-27T02:07:45.663Z,58.98
2018-11-27T02:10:13.013Z,58.54
2018-11-27T02:12:41.662Z,59.99
2018-11-27T02:15:28.274Z,60.91
2018-11-27T02:17:55.959Z,61.43
2018-11-27T02:20:23.383Z,60.15
2018-11-27T02:22:50.805Z,59.15
2018-11-27T02:25:21.241Z,59.63
2018-11-27T02:27:48.879Z,60.68
2018-11-27T02:30:18.300Z,59.02
2018-11-27T02:32:45.666Z,59.58
2018-11-27T02:35:17.637Z,61.44
2018-11-27T02:37:46.792Z,61.70
2018-11-27T02:40:15.942Z,60.89
2018-11-27T02:42:43.441Z,59.70
2018-11-27T02:45:13.841Z,59.63
2018-11-27T02:47:41.719Z,59.85
2018-11-27T02:50:12.910Z,59.90
2018-11-27T02:52:40.350Z,58.93
2018-11-27T02:55:24.365Z,60.17
2018-11-27T02:57:51.865Z,59.73
2018-11-27T03:00:20.765Z,59.76
2018-11-27T03:02:48.803Z,61.08
2018-11-27T03:05:19.901Z,60.59
2018-11-27T03:07:47.248Z,61.25
2018-11-27T03:10:15.162Z,60.76
2018-11-27T03:12:42.680Z,62.07
2018-11-27T03:15:12.792Z,61.72
2018-11-27T03:17:40.177Z,61.99
2018-11-27T03:20:09.089Z,62.85
2018-11-27T03:22:36.499Z,61.96
2018-11-27T03:25:04.617Z,61.72
2018-11-27T03:27:31.979Z,63.18
2018-11-27T03:29:59.404Z,62.42
2018-11-27T03:32:26.771Z,62.11
2018-11-27T03:34:54.134Z,61.72
2018-11-27T03:37:21.495Z,62.83
2018-11-27T03:39:49.205Z,61.46
2018-11-27T03:42:16.544Z,60.12
2018-11-27T03:44:44.020Z,58.79
2018-11-27T03:47:11.432Z,59.61
2018-11-27T03:49:38.860Z,60.69
2018-11-27T03:52:06.186Z,58.90
2018-11-27T03:54:33.559Z,59.12
2018-11-27T03:57:01.034Z,58.41
2018-11-27T03:59:28.372Z,57.45
2018-11-27T04:01:58.445Z,59.64
2018-11-27T04:04:25.899Z,59.21
2018-11-27T04:06:53.240Z,58.43
2018-11-27T04:09:20.567Z,59.25
2018-11-27T04:11:48.024Z,58.42
2018-11-27T04:14:15.326Z,58.65
2018-11-27T04:16:42.685Z,58.81
2018-11-27T04:19:10.013Z,60.56
2018-11-27T04:21:37.355Z,61.77
2018-11-27T04:24:05.711Z,63.09
2018-11-27T04:26:33.122Z,62.05
2018-11-27T04:29:00.519Z,62.62
2018-11-27T04:31:27.822Z,62.75
2018-11-27T04:33:55.249Z,63.40
2018-11-27T04:36:22.622Z,62.69
2018-11-27T04:38:50.023Z,61.00
2018-11-27T04:41:17.415Z,62.75
2018-11-27T04:43:45.023Z,61.60
2018-11-27T04:46:12.349Z,62.78
2018-11-27T04:48:39.771Z,62.10
2018-11-27T04:51:07.112Z,62.88
2018-11-27T04:53:34.545Z,62.51
2018-11-27T04:56:01.890Z,63.33
2018-11-27T04:58:29.413Z,63.50
2018-11-27T05:00:56.940Z,64.15
2018-11-27T05:03:24.299Z,63.67
2018-11-27T05:05:51.674Z,64.31
2018-11-27T05:08:19.035Z,64.08
2018-11-27T05:10:46.464Z,64.79
2018-11-27T05:13:13.916Z,65.25
2018-11-27T05:15:41.340Z,64.79
2018-11-27T05:18:08.788Z,64.20
2018-11-27T05:20:36.164Z,61.45
2018-11-27T05:23:03.984Z,60.61
2018-11-27T05:25:31.474Z,62.48
2018-11-27T05:27:59.491Z,61.33
2018-11-27T05:30:28.463Z,62.10
2018-11-27T05:32:55.421Z,61.90
2018-11-27T05:35:27.913Z,62.48
2018-11-27T05:37:56.202Z,64.10
2018-11-27T05:40:24.470Z,63.51
2018-11-27T05:42:54.153Z,62.03
2018-11-27T05:45:22.427Z,60.25
2018-11-27T05:47:49.764Z,61.87
2018-11-27T05:50:17.992Z,63.91
2018-11-27T05:52:45.425Z,62.89
2018-11-27T05:55:13.332Z,63.12
2018-11-27T05:57:41.567Z,63.60
2018-11-27T06:00:13.954Z,63.87
2018-11-27T06:02:41.392Z,64.27
2018-11-27T06:05:13.417Z,63.85
2018-11-27T06:07:40.724Z,62.03
2018-11-27T06:10:09.538Z,62.25
2018-11-27T06:12:36.865Z,63.19
2018-11-27T06:15:05.318Z,62.64
2018-11-27T06:17:32.693Z,63.09
2018-11-27T06:20:00.151Z,63.04
2018-11-27T06:22:27.655Z,62.65
2018-11-27T06:24:55.065Z,63.61
2018-11-27T06:27:22.411Z,63.03
2018-11-27T06:29:49.833Z,63.69
2018-11-27T06:32:21.363Z,64.14
2018-11-27T06:34:44.655Z,62.61
2018-11-27T06:37:12.002Z,63.25
2018-11-27T06:39:39.449Z,63.02
2018-11-27T06:42:06.924Z,61.07
2018-11-27T06:44:34.251Z,62.14
2018-11-27T06:47:01.589Z,61.56
2018-11-27T06:49:28.933Z,61.56
2018-11-27T06:51:56.310Z,62.07
2018-11-27T06:54:23.730Z,62.75
2018-11-27T06:56:51.207Z,61.75
2018-11-27T06:59:18.561Z,63.44
2018-11-27T07:01:45.893Z,63.35
2018-11-27T07:04:13.310Z,63.58
2018-11-27T07:06:40.828Z,63.52
2018-11-27T07:09:09.270Z,62.04
2018-11-27T07:11:36.878Z,63.80
2018-11-27T07:14:04.680Z,63.71
2018-11-27T07:16:32.227Z,62.55
2018-11-27T07:18:59.612Z,61.67
2018-11-27T07:21:27.115Z,61.99
2018-11-27T07:23:54.426Z,64.04
2018-11-27T07:26:21.790Z,64.02
2018-11-27T07:28:49.088Z,61.69
2018-11-27T07:31:16.556Z,61.38
2018-11-27T07:33:43.954Z,60.74
2018-11-27T07:36:11.318Z,59.31
2018-11-27T07:38:38.710Z,58.20
2018-11-27T07:41:06.074Z,58.58
2018-11-27T07:43:33.540Z,61.22
2018-11-27T07:46:00.998Z,60.83
2018-11-27T07:48:28.366Z,61.01
2018-11-27T07:50:55.736Z,60.53
2018-11-27T07:53:23.191Z,61.05
2018-11-27T07:55:50.556Z,59.21
2018-11-27T07:58:17.874Z,57.91
2018-11-27T08:00:45.252Z,58.29
2018-11-27T08:03:12.616Z,58.01
2018-11-27T08:05:40.896Z,57.52
2018-11-27T08:08:12.641Z,56.32
2018-11-27T08:10:40.491Z,57.28
2018-11-27T08:13:08.519Z,56.95
2018-11-27T08:15:35.975Z,57.16
2018-11-27T08:18:03.343Z,56.15
2018-11-27T08:20:31.858Z,57.22
2018-11-27T08:22:59.353Z,56.59
2018-11-27T08:25:26.777Z,56.14
2018-11-27T08:27:54.155Z,57.87
2018-11-27T08:30:22.180Z,57.10
2018-11-27T08:32:49.984Z,57.73
2018-11-27T08:35:23.601Z,56.81
2018-11-27T08:37:52.044Z,57.47
2018-11-27T08:40:20.604Z,56.95
2018-11-27T08:42:47.983Z,57.44
2018-11-27T08:45:18.202Z,56.25
2018-11-27T08:47:46.497Z,56.86
2018-11-27T08:50:16.941Z,56.26
2018-11-27T08:52:52.927Z,56.68
2018-11-27T08:55:51.452Z,57.08
2018-11-27T08:58:20.187Z,57.08
2018-11-27T09:00:47.744Z,57.92
2018-11-27T09:03:15.194Z,57.16
2018-11-27T09:05:42.707Z,58.79
2018-11-27T09:08:10.060Z,57.87
2018-11-27T09:10:37.365Z,56.85
2018-11-27T09:13:05.972Z,57.51
2018-11-27T09:15:33.361Z,57.65
2018-11-27T09:18:18.527Z,56.44
2018-11-27T09:20:45.904Z,56.81
2018-11-27T09:23:13.273Z,57.06
2018-11-27T09:25:40.635Z,55.68
2018-11-27T09:28:07.939Z,55.15
2018-11-27T09:30:35.347Z,54.72
2018-11-27T09:33:02.768Z,53.95
2018-11-27T09:35:30.249Z,54.07
2018-11-27T09:37:57.823Z,53.49
2018-11-27T09:40:25.225Z,54.57
2018-11-27T09:42:52.681Z,54.83
2018-11-27T09:45:24.155Z,55.51
2018-11-27T09:47:53.986Z,55.55
2018-11-27T09:50:21.321Z,55.33
2018-11-27T09:52:48.882Z,54.34
2018-11-27T09:55:17.724Z,53.16
2018-11-27T09:57:45.146Z,53.63
2018-11-27T10:00:24.922Z,54.01
2018-11-27T10:02:53.685Z,53.06
2018-11-27T10:05:21.966Z,53.06
2018-11-27T10:07:49.364Z,53.05
2018-11-27T10:10:18.162Z,53.15
2018-11-27T10:12:45.529Z,53.79
2018-11-27T10:15:15.998Z,53.48
2018-11-27T10:17:44.069Z,52.35
2018-11-27T10:20:13.197Z,52.65
2018-11-27T10:22:41.306Z,52.12
2018-11-27T10:25:09.939Z,52.11
2018-11-27T10:27:37.325Z,51.82
2018-11-27T10:30:09.276Z,52.18
2018-11-27T10:32:36.787Z,52.33
2018-11-27T10:35:04.677Z,51.59
2018-11-27T10:37:32.062Z,51.35
2018-11-27T10:40:00.004Z,51.33
2018-11-27T10:42:30.078Z,51.07
2018-11-27T10:44:54.793Z,51.39
2018-11-27T10:47:22.240Z,55.12
2018-11-27T10:49:50.205Z,52.50
2018-11-27T10:52:17.564Z,51.92
2018-11-27T10:54:44.920Z,52.60
2018-11-27T10:57:12.377Z,53.56
2018-11-27T10:59:39.942Z,52.80
2018-11-27T11:02:12.969Z,52.61
2018-11-27T11:04:40.396Z,52.22
2018-11-27T11:07:07.779Z,52.26
2018-11-27T11:09:35.196Z,51.64
2018-11-27T11:12:02.524Z,52.33
2018-11-27T11:14:29.887Z,53.91
2018-11-27T11:16:57.223Z,52.46
2018-11-27T11:19:24.664Z,51.84
2018-11-27T11:21:51.999Z,50.52
2018-11-27T11:24:19.424Z,51.78
2018-11-27T11:26:46.770Z,51.33
2018-11-27T11:29:14.180Z,51.41
2018-11-27T11:31:41.608Z,51.06
2018-11-27T11:34:08.966Z,51.76
2018-11-27T11:36:36.282Z,51.33
2018-11-27T11:39:07.339Z,51.82
2018-11-27T11:41:34.729Z,51.28
2018-11-27T11:44:02.198Z,51.55
2018-11-27T11:46:29.554Z,50.84
2018-11-27T11:49:01.783Z,51.18
2018-11-27T11:51:24.432Z,50.18
2018-11-27T11:53:51.961Z,50.53
2018-11-27T11:56:19.365Z,50.83
2018-11-27T11:58:46.743Z,50.99
2018-11-27T12:01:14.116Z,51.23
2018-11-27T12:03:42.521Z,49.58
2018-11-27T12:06:10.607Z,50.02
2018-11-27T12:08:38.751Z,49.73
2018-11-27T12:11:06.097Z,49.00
2018-11-27T12:13:33.527Z,49.69
2018-11-27T12:16:01.411Z,49.62
2018-11-27T12:18:28.789Z,49.53
2018-11-27T12:20:57.280Z,49.64
2018-11-27T12:23:24.628Z,50.27
2018-11-27T12:25:51.998Z,49.63
2018-11-27T12:28:19.406Z,50.08
2018-11-27T12:30:46.848Z,49.41
2018-11-27T12:33:14.241Z,49.35
2018-11-27T12:35:41.629Z,50.20
2018-11-27T12:38:09.219Z,50.16
2018-11-27T12:40:36.690Z,49.65
2018-11-27T12:43:04.407Z,50.14
2018-11-27T12:45:32.779Z,48.82
2018-11-27T12:48:01.620Z,49.04
2018-11-27T12:50:39.700Z,50.45
2018-11-27T12:53:09.346Z,49.97
2018-11-27T12:55:38.259Z,49.25
2018-11-27T12:58:06.961Z,49.81
2018-11-27T13:00:34.832Z,49.75
2018-11-27T13:03:02.268Z,49.33
2018-11-27T13:05:42.000Z,49.98
2018-11-27T13:08:12.031Z,50.13
2018-11-27T13:10:39.364Z,49.62
2018-11-27T13:13:06.818Z,50.33
2018-11-27T13:15:35.545Z,50.37
2018-11-27T13:18:03.085Z,50.35
2018-11-27T13:20:30.459Z,49.92
2018-11-27T13:22:57.835Z,50.44
2018-11-27T13:25:25.234Z,50.89
2018-11-27T13:27:54.120Z,50.45
2018-11-27T13:30:28.225Z,51.10
2018-11-27T13:32:58.237Z,49.99
2018-11-27T13:35:25.638Z,49.91
2018-11-27T13:37:53.067Z,50.60
2018-11-27T13:40:20.453Z,49.97
2018-11-27T13:42:47.908Z,49.34
2018-11-27T13:45:15.773Z,49.03
2018-11-27T13:47:43.695Z,49.29
2018-11-27T13:50:13.049Z,50.04
2018-11-27T13:52:40.398Z,50.42
2018-11-27T13:55:10.940Z,49.97
2018-11-27T13:57:38.287Z,48.90
2018-11-27T14:00:08.250Z,49.35
2018-11-27T14:02:35.589Z,49.23
2018-11-27T14:05:02.955Z,49.24
2018-11-27T14:07:30.377Z,49.69
2018-11-27T14:09:57.761Z,49.23
2018-11-27T14:12:25.185Z,48.43
2018-11-27T14:14:52.563Z,48.45
2018-11-27T14:17:20.066Z,49.10
2018-11-27T14:19:47.461Z,50.19
2018-11-27T14:22:15.032Z,49.99
2018-11-27T14:24:42.441Z,49.63
2018-11-27T14:27:09.872Z,49.39
2018-11-27T14:29:37.230Z,48.83
2018-11-27T14:32:10.859Z,49.20
2018-11-27T14:34:38.294Z,49.13
2018-11-27T14:37:05.757Z,49.39
2018-11-27T14:39:33.290Z,50.49
2018-11-27T14:42:00.646Z,52.58
2018-11-27T14:44:28.204Z,50.97
2018-11-27T14:46:55.680Z,50.34
2018-11-27T14:49:23.077Z,51.12
2018-11-27T14:51:50.607Z,49.35
2018-11-27T14:54:17.956Z,49.89
2018-11-27T14:56:45.506Z,49.41
2018-11-27T14:59:12.893Z,51.23
2018-11-27T15:01:40.245Z,50.10
2018-11-27T15:04:07.744Z,50.19
2018-11-27T15:06:35.199Z,49.96
2018-11-27T15:09:03.635Z,50.25
2018-11-27T15:11:30.914Z,50.12
2018-11-27T15:13:58.489Z,50.40
2018-11-27T15:16:25.935Z,50.88
2018-11-27T15:18:53.397Z,50.69
2018-11-27T15:21:20.733Z,50.95
2018-11-27T15:23:48.083Z,50.85
2018-11-27T15:26:15.462Z,51.17
2018-11-27T15:28:43.022Z,51.44
2018-11-27T15:31:10.456Z,51.36
2018-11-27T15:33:37.904Z,50.76
2018-11-27T15:36:05.736Z,50.67
2018-11-27T15:38:33.167Z,52.21
2018-11-27T15:41:00.534Z,51.78
2018-11-27T15:43:27.920Z,52.48
2018-11-27T15:45:55.410Z,51.98
2018-11-27T15:48:22.905Z,51.98
2018-11-27T15:50:50.266Z,52.17
2018-11-27T15:53:17.660Z,52.17
2018-11-27T15:55:45.050Z,51.90
2018-11-27T15:58:13.582Z,51.88
2018-11-27T16:00:42.130Z,52.11
2018-11-27T16:03:09.486Z,52.38
2018-11-27T16:05:37.596Z,52.40
2018-11-27T16:08:06.337Z,53.09
2018-11-27T16:10:33.808Z,52.73
2018-11-27T16:13:01.253Z,53.11
2018-11-27T16:15:28.703Z,53.08
2018-11-27T16:17:56.027Z,53.24
2018-11-27T16:20:23.427Z,53.49
2018-11-27T16:22:51.825Z,52.62
2018-11-27T16:25:20.544Z,53.06
2018-11-27T16:27:47.976Z,53.51
2018-11-27T16:30:18.791Z,53.28
2018-11-27T16:32:46.227Z,53.29
2018-11-27T16:35:14.092Z,53.20
2018-11-27T16:37:42.366Z,53.50
2018-11-27T16:40:13.142Z,53.24
2018-11-27T16:42:43.132Z,53.42
2018-11-27T16:45:16.844Z,53.00
2018-11-27T16:47:44.640Z,53.57
2018-11-27T16:50:13.921Z,53.46
2018-11-27T16:52:41.344Z,53.28
2018-11-27T16:55:12.839Z,53.82
2018-11-27T16:57:40.531Z,53.75
2018-11-27T17:00:20.374Z,53.64
2018-11-27T17:02:48.736Z,54.64
2018-11-27T17:05:16.198Z,54.88
2018-11-27T17:07:43.537Z,54.02
2018-11-27T17:10:13.219Z,55.20
2018-11-27T17:12:40.833Z,54.71
2018-11-27T17:15:12.719Z,54.41
2018-11-27T17:17:40.061Z,54.62
2018-11-27T17:20:12.151Z,54.61
2018-11-27T17:22:39.575Z,54.35
2018-11-27T17:25:06.971Z,54.29
2018-11-27T17:27:34.407Z,54.05
2018-11-27T17:30:01.784Z,54.51
2018-11-27T17:32:29.155Z,54.04
2018-11-27T17:34:56.590Z,54.37
2018-11-27T17:37:23.968Z,55.04
2018-11-27T17:39:51.354Z,54.44
2018-11-27T17:42:18.726Z,54.10
2018-11-27T17:44:46.197Z,54.96
2018-11-27T17:47:13.672Z,54.56
2018-11-27T17:49:41.306Z,55.01
2018-11-27T17:52:08.658Z,54.31
2018-11-27T17:54:36.171Z,54.18
2018-11-27T17:57:03.510Z,53.98
2018-11-27T17:59:30.882Z,55.14
2018-11-27T18:01:58.476Z,54.82
2018-11-27T18:04:25.810Z,54.46
2018-11-27T18:06:53.308Z,53.73
2018-11-27T18:09:20.830Z,53.43
2018-11-27T18:11:48.356Z,53.19
2018-11-27T18:14:15.719Z,53.25
2018-11-27T18:16:43.726Z,53.43
2018-11-27T18:19:11.117Z,53.74
2018-11-27T18:21:38.584Z,54.07
2018-11-27T18:24:06.035Z,54.15
2018-11-27T18:26:33.446Z,54.17
2018-11-27T18:29:01.267Z,55.66
2018-11-27T18:31:28.745Z,55.14
2018-11-27T18:33:56.258Z,55.74
2018-11-27T18:36:25.806Z,55.83
2018-11-27T18:38:51.089Z,55.66
2018-11-27T18:41:18.579Z,55.81
2018-11-27T18:43:46.132Z,56.27
2018-11-27T18:46:13.602Z,57.77
2018-11-27T18:48:41.029Z,56.45
2018-11-27T18:51:08.464Z,56.09
2018-11-27T18:53:35.979Z,56.21
2018-11-27T18:56:03.509Z,56.40
2018-11-27T18:58:30.881Z,57.38
2018-11-27T19:00:58.218Z,55.75
2018-11-27T19:03:25.599Z,55.24
2018-11-27T19:05:53.079Z,55.22
2018-11-27T19:08:20.640Z,56.23
2018-11-27T19:10:48.091Z,55.45
2018-11-27T19:13:15.463Z,54.75
2018-11-27T19:15:45.344Z,54.51
2018-11-27T19:18:15.662Z,54.24
2018-11-27T19:20:43.059Z,53.88
2018-11-27T19:23:10.448Z,53.94
2018-11-27T19:25:37.954Z,53.87
2018-11-27T19:28:06.296Z,54.30
2018-11-27T19:30:33.937Z,54.26
2018-11-27T19:33:01.283Z,54.46
2018-11-27T19:35:28.680Z,54.27
2018-11-27T19:37:56.121Z,54.42
2018-11-27T19:40:23.476Z,54.45
2018-11-27T19:42:50.865Z,54.84
2018-11-27T19:45:22.707Z,54.76
2018-11-27T19:47:50.350Z,54.64
2018-11-27T19:50:19.619Z,54.31
2018-11-27T19:52:49.331Z,54.12
2018-11-27T19:55:17.496Z,54.09
2018-11-27T19:57:44.983Z,54.22
2018-11-27T20:00:15.680Z,54.25
2018-11-27T20:02:43.483Z,54.47
2018-11-27T20:05:12.348Z,54.80
2018-11-27T20:07:40.262Z,54.59
2018-11-27T20:10:09.781Z,54.53
2018-11-27T20:12:37.389Z,54.62
2018-11-27T20:15:07.466Z,54.46
2018-11-27T20:17:34.881Z,54.26
2018-11-27T20:20:02.331Z,54.40
2018-11-27T20:22:29.743Z,54.20
2018-11-27T20:24:57.225Z,54.44
2018-11-27T20:27:25.602Z,54.30
2018-11-27T20:29:53.246Z,54.62
2018-11-27T20:32:20.776Z,54.84
2018-11-27T20:34:48.160Z,54.92
2018-11-27T20:37:15.685Z,54.96
2018-11-27T20:39:43.141Z,54.36
2018-11-27T20:42:10.567Z,53.98
2018-11-27T20:44:37.931Z,54.89
2018-11-27T20:47:07.586Z,54.40
2018-11-27T20:49:32.863Z,54.43
2018-11-27T20:52:00.407Z,54.98
2018-11-27T20:54:28.036Z,54.26
2018-11-27T20:56:55.539Z,54.21
2018-11-27T20:59:23.065Z,54.59
2018-11-27T21:01:50.655Z,54.50
2018-11-27T21:04:18.093Z,54.15
2018-11-27T21:06:45.551Z,54.25
2018-11-27T21:09:13.151Z,54.58
2018-11-27T21:11:41.088Z,54.81
2018-11-27T21:14:09.217Z,54.60
2018-11-27T21:16:36.737Z,54.60
2018-11-27T21:19:04.320Z,54.99
2018-11-27T21:21:31.718Z,54.54
2018-11-27T21:23:59.188Z,54.10
2018-11-27T21:26:26.604Z,54.72
2018-11-27T21:28:54.035Z,54.64
2018-11-27T21:31:24.141Z,55.19
2018-11-27T21:33:48.887Z,54.57
2018-11-27T21:36:16.414Z,55.06
2018-11-27T21:38:43.866Z,54.91
2018-11-27T21:41:11.243Z,54.65
2018-11-27T21:43:38.696Z,54.70
2018-11-27T21:46:07.209Z,56.97
2018-11-27T21:48:35.301Z,57.17
2018-11-27T21:51:03.511Z,56.02
2018-11-27T21:53:30.890Z,56.54
2018-11-27T21:55:58.535Z,57.19
2018-11-27T21:58:26.001Z,55.63
2018-11-27T22:00:53.376Z,54.68
2018-11-27T22:03:20.856Z,56.34
2018-11-27T22:05:48.264Z,55.65
2018-11-27T22:08:16.156Z,55.04
2018-11-27T22:10:43.470Z,54.93
2018-11-27T22:13:12.656Z,54.47
2018-11-27T22:15:41.317Z,54.39
2018-11-27T22:18:09.877Z,54.84
2018-11-27T22:20:37.320Z,54.13
2018-11-27T22:23:05.534Z,54.67
2018-11-27T22:25:32.939Z,55.03
2018-11-27T22:28:00.358Z,54.71
2018-11-27T22:30:27.744Z,55.00
2018-11-27T22:32:55.586Z,56.04
2018-11-27T22:35:22.998Z,56.12
2018-11-27T22:37:50.425Z,55.71
2018-11-27T22:40:19.440Z,55.81
2018-11-27T22:42:47.415Z,55.20
2018-11-27T22:45:31.538Z,55.08
2018-11-27T22:47:58.977Z,54.51
2018-11-27T22:50:26.457Z,54.65
2018-11-27T22:52:53.871Z,54.89
2018-11-27T22:55:21.488Z,55.02
2018-11-27T22:57:48.919Z,55.20
2018-11-27T23:00:21.693Z,54.33
2018-11-27T23:02:49.244Z,56.33
2018-11-27T23:05:17.443Z,55.42
2018-11-27T23:07:44.882Z,54.86
2018-11-27T23:10:13.087Z,55.06
2018-11-27T23:12:40.525Z,54.76
2018-11-27T23:15:10.533Z,54.20
2018-11-27T23:17:37.952Z,53.94
2018-11-27T23:20:07.932Z,54.70
2018-11-27T23:22:35.272Z,54.42
2018-11-27T23:25:02.778Z,54.81
2018-11-27T23:27:30.320Z,54.47
2018-11-27T23:29:57.664Z,54.53
2018-11-27T23:32:25.122Z,54.37
2018-11-27T23:34:53.119Z,53.64
2018-11-27T23:37:20.544Z,54.40
2018-11-27T23:39:47.998Z,54.35
2018-11-27T23:42:15.532Z,54.79
2018-11-27T23:44:43.386Z,54.50
2018-11-27T23:47:10.790Z,54.17
2018-11-27T23:49:38.632Z,55.33
2018-11-27T23:52:06.034Z,54.95
2018-11-27T23:54:33.363Z,54.51
2018-11-27T23:57:00.810Z,54.61
2018-11-27T23:59:28.215Z,54.99
